sensor_id;sensor_type;location;lat;lon;timestamp;pressure;altitude;pressure_sealevel;temperature;humidity
4133;BME280;2080;51.038;7.008;2023-04-29T00:01:32;75361.00;;;-142.53;92.05
4133;BME280;2080;51.038;7.008;2023-04-29T00:03:58;75357.09;;;-142.53;91.08
4133;BME280;2080;51.038;7.008;2023-04-29T00:06:25;75347.41;;;-142.53;89.75
4133;BME280;2080;51.038;7.008;2023-04-29T00:08:50;75364.88;;;-142.53;89.54
4133;BME280;2080;51.038;7.008;2023-04-29T00:11:17;75382.34;;;-142.53;89.86
4133;BME280;2080;51.038;7.008;2023-04-29T00:13:42;75388.16;;;-142.53;85.85
4133;BME280;2080;51.038;7.008;2023-04-29T00:16:10;75405.66;;;-142.53;84.57
4133;BME280;2080;51.038;7.008;2023-04-29T00:18:38;75390.13;;;-142.53;81.35
4133;BME280;2080;51.038;7.008;2023-04-29T00:21:03;75390.13;;;-142.53;81.13
4133;BME280;2080;51.038;7.008;2023-04-29T00:23:33;75372.63;;;-142.53;81.03
4133;BME280;2080;51.038;7.008;2023-04-29T00:26:01;75357.09;;;-142.53;80.23
4133;BME280;2080;51.038;7.008;2023-04-29T00:28:29;75361.00;;;-142.53;80.34
4133;BME280;2080;51.038;7.008;2023-04-29T00:30:57;75399.81;;;-142.53;79.09
4133;BME280;2080;51.038;7.008;2023-04-29T00:33:22;75384.28;;;-142.53;78.96
4133;BME280;2080;51.038;7.008;2023-04-29T00:35:53;75399.81;;;-142.53;78.08
4133;BME280;2080;51.038;7.008;2023-04-29T00:38:20;75349.34;;;-142.53;78.87
4133;BME280;2080;51.038;7.008;2023-04-29T00:40:48;75345.44;;;-142.53;81.21
4133;BME280;2080;51.038;7.008;2023-04-29T00:43:14;75337.69;;;-142.53;83.14
4133;BME280;2080;51.038;7.008;2023-04-29T00:45:39;75327.97;;;-142.53;83.10
4133;BME280;2080;51.038;7.008;2023-04-29T00:48:05;75364.88;;;-142.53;82.83
4133;BME280;2080;51.038;7.008;2023-04-29T00:50:30;75384.28;;;-142.53;83.69
4133;BME280;2080;51.038;7.008;2023-04-29T00:52:56;75411.47;;;-142.53;83.72
4133;BME280;2080;51.038;7.008;2023-04-29T00:55:22;75419.25;;;-142.53;85.39
4133;BME280;2080;51.038;7.008;2023-04-29T00:57:48;75384.28;;;-142.53;83.81
4133;BME280;2080;51.038;7.008;2023-04-29T01:00:17;75394.00;;;-142.53;85.21
4133;BME280;2080;51.038;7.008;2023-04-29T01:02:45;75384.28;;;-142.53;85.27
4133;BME280;2080;51.038;7.008;2023-04-29T01:05:14;75349.34;;;-142.53;85.63
4133;BME280;2080;51.038;7.008;2023-04-29T01:08:15;75384.28;;;-142.53;85.75
4133;BME280;2080;51.038;7.008;2023-04-29T01:10:53;75399.81;;;-142.53;85.52
4133;BME280;2080;51.038;7.008;2023-04-29T01:13:36;75403.72;;;-142.53;86.19
4133;BME280;2080;51.038;7.008;2023-04-29T01:16:10;75388.16;;;-142.53;85.49
4133;BME280;2080;51.038;7.008;2023-04-29T01:18:45;75407.59;;;-142.53;86.88
4133;BME280;2080;51.038;7.008;2023-04-29T01:21:14;75395.94;;;-142.53;86.48
4133;BME280;2080;51.038;7.008;2023-04-29T01:23:42;75403.72;;;-142.53;87.04
4133;BME280;2080;51.038;7.008;2023-04-29T01:26:09;75427.00;;;-142.53;87.51
4133;BME280;2080;51.038;7.008;2023-04-29T01:28:42;75407.59;;;-142.53;86.83
4133;BME280;2080;51.038;7.008;2023-04-29T01:31:18;75419.25;;;-142.53;87.88
4133;BME280;2080;51.038;7.008;2023-04-29T01:33:49;75409.53;;;-142.53;87.52
4133;BME280;2080;51.038;7.008;2023-04-29T01:39:06;75461.97;;;-142.53;87.67
4133;BME280;2080;51.038;7.008;2023-04-29T01:42:12;75458.06;;;-142.53;86.98
4133;BME280;2080;51.038;7.008;2023-04-29T01:44:39;75479.44;;;-142.53;86.81
4133;BME280;2080;51.038;7.008;2023-04-29T01:47:06;75477.50;;;-142.53;87.24
4133;BME280;2080;51.038;7.008;2023-04-29T01:49:35;75524.09;;;-142.53;88.56
4133;BME280;2080;51.038;7.008;2023-04-29T01:52:05;75491.09;;;-142.53;88.12
4133;BME280;2080;51.038;7.008;2023-04-29T01:54:31;75551.28;;;-142.53;90.60
4133;BME280;2080;51.038;7.008;2023-04-29T01:57:00;75527.97;;;-142.53;89.92
4133;BME280;2080;51.038;7.008;2023-04-29T01:59:26;75520.22;;;-142.53;89.18
4133;BME280;2080;51.038;7.008;2023-04-29T02:01:51;75496.91;;;-142.53;88.42
4133;BME280;2080;51.038;7.008;2023-04-29T02:04:17;75500.78;;;-142.53;88.34
4133;BME280;2080;51.038;7.008;2023-04-29T02:06:47;75524.09;;;-142.53;90.57
4133;BME280;2080;51.038;7.008;2023-04-29T02:09:12;75518.28;;;-142.53;90.71
4133;BME280;2080;51.038;7.008;2023-04-29T02:11:37;75543.50;;;-142.53;91.55
4133;BME280;2080;51.038;7.008;2023-04-29T02:14:03;75508.56;;;-142.53;90.01
4133;BME280;2080;51.038;7.008;2023-04-29T02:16:28;75527.97;;;-142.53;92.18
4133;BME280;2080;51.038;7.008;2023-04-29T02:18:56;75520.22;;;-142.53;91.64
4133;BME280;2080;51.038;7.008;2023-04-29T02:21:21;75526.03;;;-142.53;93.25
4133;BME280;2080;51.038;7.008;2023-04-29T02:23:47;75496.91;;;-142.53;92.15
4133;BME280;2080;51.038;7.008;2023-04-29T02:26:18;75496.91;;;-142.53;92.71
4133;BME280;2080;51.038;7.008;2023-04-29T02:28:44;75518.28;;;-142.53;93.50
4133;BME280;2080;51.038;7.008;2023-04-29T02:31:11;75526.03;;;-142.53;94.04
4133;BME280;2080;51.038;7.008;2023-04-29T02:33:37;75524.09;;;-142.53;93.51
4133;BME280;2080;51.038;7.008;2023-04-29T02:36:03;75559.06;;;-142.53;94.35
4133;BME280;2080;51.038;7.008;2023-04-29T02:38:31;75539.63;;;-142.53;93.87
4133;BME280;2080;51.038;7.008;2023-04-29T02:41:01;75566.81;;;-142.53;95.17
4133;BME280;2080;51.038;7.008;2023-04-29T02:43:27;75572.66;;;-142.53;95.66
4133;BME280;2080;51.038;7.008;2023-04-29T02:45:55;75595.94;;;-142.53;97.83
4133;BME280;2080;51.038;7.008;2023-04-29T02:48:24;75586.25;;;-142.53;98.18
4133;BME280;2080;51.038;7.008;2023-04-29T02:50:52;75584.28;;;-142.53;97.72
4133;BME280;2080;51.038;7.008;2023-04-29T02:53:17;75597.88;;;-142.53;98.53
4133;BME280;2080;51.038;7.008;2023-04-29T02:55:45;75619.25;;;-142.53;99.85
4133;BME280;2080;51.038;7.008;2023-04-29T02:58:11;75611.47;;;-142.53;99.25
4133;BME280;2080;51.038;7.008;2023-04-29T03:00:36;75605.66;;;-142.53;100.00
4133;BME280;2080;51.038;7.008;2023-04-29T03:03:06;75605.66;;;-142.53;99.63
4133;BME280;2080;51.038;7.008;2023-04-29T03:05:34;75605.66;;;-142.53;100.00
4133;BME280;2080;51.038;7.008;2023-04-29T03:08:00;75594.00;;;-142.53;100.00
4133;BME280;2080;51.038;7.008;2023-04-29T03:10:26;75597.88;;;-142.53;100.00
4133;BME280;2080;51.038;7.008;2023-04-29T03:12:51;75628.97;;;-142.53;98.79
4133;BME280;2080;51.038;7.008;2023-04-29T03:15:18;75679.44;;;-142.53;100.00
4133;BME280;2080;51.038;7.008;2023-04-29T03:17:44;75679.44;;;-142.53;100.00
4133;BME280;2080;51.038;7.008;2023-04-29T03:20:12;75675.56;;;-142.53;100.00
4133;BME280;2080;51.038;7.008;2023-04-29T03:22:40;75685.28;;;-142.53;100.00
4133;BME280;2080;51.038;7.008;2023-04-29T03:25:06;75733.81;;;-142.53;100.00
4133;BME280;2080;51.038;7.008;2023-04-29T03:27:31;75714.41;;;-142.53;100.00
4133;BME280;2080;51.038;7.008;2023-04-29T03:29:57;75776.53;;;-142.53;100.00
4133;BME280;2080;51.038;7.008;2023-04-29T03:32:25;75827.03;;;-142.53;100.00
4133;BME280;2080;51.038;7.008;2023-04-29T03:34:51;75778.50;;;-142.53;100.00
4133;BME280;2080;51.038;7.008;2023-04-29T03:37:19;75776.53;;;-142.53;100.00
4133;BME280;2080;51.038;7.008;2023-04-29T03:39:44;75776.53;;;-142.53;100.00
4133;BME280;2080;51.038;7.008;2023-04-29T03:42:09;75764.91;;;-142.53;100.00
4133;BME280;2080;51.038;7.008;2023-04-29T03:44:35;75788.19;;;-142.53;100.00
4133;BME280;2080;51.038;7.008;2023-04-29T03:47:00;75764.91;;;-142.53;100.00
4133;BME280;2080;51.038;7.008;2023-04-29T03:49:28;75780.44;;;-142.53;100.00
4133;BME280;2080;51.038;7.008;2023-04-29T03:51:53;75764.91;;;-142.53;100.00
4133;BME280;2080;51.038;7.008;2023-04-29T03:54:19;75838.69;;;-142.53;100.00
4133;BME280;2080;51.038;7.008;2023-04-29T03:56:46;75768.78;;;-142.53;100.00
4133;BME280;2080;51.038;7.008;2023-04-29T03:59:12;75788.19;;;-142.53;100.00
4133;BME280;2080;51.038;7.008;2023-04-29T04:01:38;75807.63;;;-142.53;100.00
4133;BME280;2080;51.038;7.008;2023-04-29T04:04:03;75801.78;;;-142.53;100.00
4133;BME280;2080;51.038;7.008;2023-04-29T04:06:31;75776.53;;;-142.53;100.00
4133;BME280;2080;51.038;7.008;2023-04-29T04:08:58;75842.56;;;-142.53;100.00
4133;BME280;2080;51.038;7.008;2023-04-29T04:11:24;75842.56;;;-142.53;100.00
4133;BME280;2080;51.038;7.008;2023-04-29T04:13:49;75858.09;;;-142.53;100.00
4133;BME280;2080;51.038;7.008;2023-04-29T04:16:15;75846.47;;;-142.53;100.00
4133;BME280;2080;51.038;7.008;2023-04-29T04:18:40;75850.34;;;-142.53;100.00
4133;BME280;2080;51.038;7.008;2023-04-29T04:21:07;75815.38;;;-142.53;100.00
4133;BME280;2080;51.038;7.008;2023-04-29T04:23:33;75834.81;;;-142.53;100.00
4133;BME280;2080;51.038;7.008;2023-04-29T04:25:59;75811.50;;;-142.53;100.00
4133;BME280;2080;51.038;7.008;2023-04-29T04:28:24;75819.28;;;-142.53;100.00
4133;BME280;2080;51.038;7.008;2023-04-29T04:30:54;75854.22;;;-142.53;100.00
4133;BME280;2080;51.038;7.008;2023-04-29T04:33:19;75830.91;;;-142.53;100.00
4133;BME280;2080;51.038;7.008;2023-04-29T04:35:50;75788.19;;;-142.53;100.00
4133;BME280;2080;51.038;7.008;2023-04-29T04:38:15;75776.53;;;-142.53;100.00
4133;BME280;2080;51.038;7.008;2023-04-29T04:40:41;75788.19;;;-142.53;100.00
4133;BME280;2080;51.038;7.008;2023-04-29T04:43:07;75801.78;;;-142.53;100.00
4133;BME280;2080;51.038;7.008;2023-04-29T04:45:32;75792.09;;;-142.53;100.00
4133;BME280;2080;51.038;7.008;2023-04-29T04:48:01;75811.50;;;-142.53;100.00
4133;BME280;2080;51.038;7.008;2023-04-29T04:50:27;75865.88;;;-142.53;100.00
4133;BME280;2080;51.038;7.008;2023-04-29T04:52:56;75858.09;;;-142.53;100.00
4133;BME280;2080;51.038;7.008;2023-04-29T04:55:22;75854.22;;;-142.53;100.00
4133;BME280;2080;51.038;7.008;2023-04-29T04:57:50;75842.56;;;-142.53;100.00
4133;BME280;2080;51.038;7.008;2023-04-29T05:00:19;75887.25;;;-142.53;100.00
4133;BME280;2080;51.038;7.008;2023-04-29T05:02:45;75842.56;;;-142.53;100.00
4133;BME280;2080;51.038;7.008;2023-04-29T05:05:10;75852.28;;;-142.53;100.00
4133;BME280;2080;51.038;7.008;2023-04-29T05:07:38;75840.63;;;-142.53;100.00
4133;BME280;2080;51.038;7.008;2023-04-29T05:10:07;75850.34;;;-142.53;100.00
4133;BME280;2080;51.038;7.008;2023-04-29T05:12:32;75834.81;;;-142.53;100.00
4133;BME280;2080;51.038;7.008;2023-04-29T05:14:59;75830.91;;;-142.53;100.00
4133;BME280;2080;51.038;7.008;2023-04-29T05:17:28;75869.75;;;-142.53;100.00
4133;BME280;2080;51.038;7.008;2023-04-29T05:19:53;75865.88;;;-142.53;100.00
4133;BME280;2080;51.038;7.008;2023-04-29T05:22:19;75858.09;;;-142.53;100.00
4133;BME280;2080;51.038;7.008;2023-04-29T05:24:44;75854.22;;;-142.53;100.00
4133;BME280;2080;51.038;7.008;2023-04-29T05:27:12;75854.22;;;-142.53;100.00
4133;BME280;2080;51.038;7.008;2023-04-29T05:29:37;75862.00;;;-142.53;100.00
4133;BME280;2080;51.038;7.008;2023-04-29T05:32:03;75842.56;;;-142.53;100.00
4133;BME280;2080;51.038;7.008;2023-04-29T05:34:28;75858.09;;;-142.53;100.00
4133;BME280;2080;51.038;7.008;2023-04-29T05:36:56;75860.06;;;-142.53;100.00
4133;BME280;2080;51.038;7.008;2023-04-29T05:39:21;75858.09;;;-142.53;100.00
4133;BME280;2080;51.038;7.008;2023-04-29T05:41:53;75881.41;;;-142.53;100.00
4133;BME280;2080;51.038;7.008;2023-04-29T05:44:18;75850.34;;;-142.53;100.00
4133;BME280;2080;51.038;7.008;2023-04-29T05:46:45;75860.06;;;-142.53;100.00
4133;BME280;2080;51.038;7.008;2023-04-29T05:49:12;75865.88;;;-142.53;100.00
4133;BME280;2080;51.038;7.008;2023-04-29T05:51:38;75889.19;;;-142.53;100.00
4133;BME280;2080;51.038;7.008;2023-04-29T05:54:05;75889.19;;;-142.53;100.00
4133;BME280;2080;51.038;7.008;2023-04-29T05:56:31;75865.88;;;-142.53;100.00
4133;BME280;2080;51.038;7.008;2023-04-29T05:58:56;75881.41;;;-142.53;100.00
4133;BME280;2080;51.038;7.008;2023-04-29T06:01:21;75865.88;;;-142.53;100.00
4133;BME280;2080;51.038;7.008;2023-04-29T06:03:47;75896.94;;;-142.53;100.00
4133;BME280;2080;51.038;7.008;2023-04-29T06:06:12;75895.00;;;-142.53;100.00
4133;BME280;2080;51.038;7.008;2023-04-29T06:08:38;75891.13;;;-142.53;100.00
4133;BME280;2080;51.038;7.008;2023-04-29T06:11:03;75885.28;;;-142.53;100.00
4133;BME280;2080;51.038;7.008;2023-04-29T06:13:30;75898.91;;;-142.53;100.00
4133;BME280;2080;51.038;7.008;2023-04-29T06:15:56;75858.09;;;-142.53;100.00
4133;BME280;2080;51.038;7.008;2023-04-29T06:18:23;75846.47;;;-142.53;100.00
4133;BME280;2080;51.038;7.008;2023-04-29T06:20:53;75869.75;;;-142.53;100.00
4133;BME280;2080;51.038;7.008;2023-04-29T06:23:19;75869.75;;;-142.53;100.00
4133;BME280;2080;51.038;7.008;2023-04-29T06:25:44;75854.22;;;-142.53;100.00
4133;BME280;2080;51.038;7.008;2023-04-29T06:28:10;75858.09;;;-142.53;99.06
4133;BME280;2080;51.038;7.008;2023-04-29T06:30:37;75836.75;;;-142.53;98.25
4133;BME280;2080;51.038;7.008;2023-04-29T06:33:05;75875.59;;;-142.53;98.50
4133;BME280;2080;51.038;7.008;2023-04-29T06:35:38;75850.34;;;-142.53;96.96
4133;BME280;2080;51.038;7.008;2023-04-29T06:38:03;75850.34;;;-142.53;96.61
4133;BME280;2080;51.038;7.008;2023-04-29T06:40:34;75846.47;;;-142.53;95.93
4133;BME280;2080;51.038;7.008;2023-04-29T06:43:00;75858.09;;;-142.53;96.09
4133;BME280;2080;51.038;7.008;2023-04-29T06:45:26;75877.53;;;-142.53;96.63
4133;BME280;2080;51.038;7.008;2023-04-29T06:47:52;75854.22;;;-142.53;95.74
4133;BME280;2080;51.038;7.008;2023-04-29T06:50:17;75827.03;;;-142.53;95.93
4133;BME280;2080;51.038;7.008;2023-04-29T06:52:43;75830.91;;;-142.53;94.53
4133;BME280;2080;51.038;7.008;2023-04-29T06:55:08;75842.56;;;-142.53;94.26
4133;BME280;2080;51.038;7.008;2023-04-29T06:57:37;75823.16;;;-142.53;93.44
4133;BME280;2080;51.038;7.008;2023-04-29T07:00:05;75807.63;;;-142.53;91.83
4133;BME280;2080;51.038;7.008;2023-04-29T07:02:33;75788.19;;;-142.53;92.92
4133;BME280;2080;51.038;7.008;2023-04-29T07:04:58;75803.72;;;-142.53;91.36
4133;BME280;2080;51.038;7.008;2023-04-29T07:07:24;75788.19;;;-142.53;90.63
4133;BME280;2080;51.038;7.008;2023-04-29T07:09:49;75770.72;;;-142.53;90.30
4133;BME280;2080;51.038;7.008;2023-04-29T07:12:18;75803.72;;;-142.53;90.68
4133;BME280;2080;51.038;7.008;2023-04-29T07:14:44;75811.50;;;-142.53;89.98
4133;BME280;2080;51.038;7.008;2023-04-29T07:17:11;75850.34;;;-142.53;91.47
4133;BME280;2080;51.038;7.008;2023-04-29T07:19:41;75799.84;;;-142.53;89.10
4133;BME280;2080;51.038;7.008;2023-04-29T07:22:07;75803.72;;;-142.53;89.67
4133;BME280;2080;51.038;7.008;2023-04-29T07:24:34;75784.31;;;-142.53;90.56
4133;BME280;2080;51.038;7.008;2023-04-29T07:27:02;75799.84;;;-142.53;88.15
4133;BME280;2080;51.038;7.008;2023-04-29T07:29:28;75823.16;;;-142.53;88.23
4133;BME280;2080;51.038;7.008;2023-04-29T07:31:53;75794.03;;;-142.53;88.77
4133;BME280;2080;51.038;7.008;2023-04-29T07:34:19;75809.56;;;-142.53;89.26
4133;BME280;2080;51.038;7.008;2023-04-29T07:36:44;75827.03;;;-142.53;88.79
4133;BME280;2080;51.038;7.008;2023-04-29T07:39:12;75799.84;;;-142.53;89.30
4133;BME280;2080;51.038;7.008;2023-04-29T07:41:39;75776.53;;;-142.53;88.88
4133;BME280;2080;51.038;7.008;2023-04-29T07:44:04;75761.00;;;-142.53;87.29
4133;BME280;2080;51.038;7.008;2023-04-29T07:46:30;75780.44;;;-142.53;87.78
4133;BME280;2080;51.038;7.008;2023-04-29T07:48:55;75813.44;;;-142.53;87.38
4133;BME280;2080;51.038;7.008;2023-04-29T07:51:22;75815.38;;;-142.53;86.05
4133;BME280;2080;51.038;7.008;2023-04-29T07:53:47;75792.09;;;-142.53;86.02
4133;BME280;2080;51.038;7.008;2023-04-29T07:56:15;75795.97;;;-142.53;86.18
4133;BME280;2080;51.038;7.008;2023-04-29T07:58:40;75807.63;;;-142.53;85.73
4133;BME280;2080;51.038;7.008;2023-04-29T08:01:09;75827.03;;;-142.53;86.54
4133;BME280;2080;51.038;7.008;2023-04-29T08:03:42;75896.94;;;-142.53;87.08
4133;BME280;2080;51.038;7.008;2023-04-29T08:06:09;75879.47;;;-142.53;87.88
4133;BME280;2080;51.038;7.008;2023-04-29T08:08:35;75828.97;;;-142.53;86.43
4133;BME280;2080;51.038;7.008;2023-04-29T08:11:00;75776.53;;;-142.53;84.24
4133;BME280;2080;51.038;7.008;2023-04-29T08:13:28;75741.59;;;-142.53;80.44
4133;BME280;2080;51.038;7.008;2023-04-29T08:15:53;75710.53;;;-142.53;80.89
4133;BME280;2080;51.038;7.008;2023-04-29T08:18:21;75733.81;;;-142.53;79.54
4133;BME280;2080;51.038;7.008;2023-04-29T08:20:47;75681.38;;;-142.53;79.00
4133;BME280;2080;51.038;7.008;2023-04-29T08:23:15;75698.88;;;-142.53;77.67
4133;BME280;2080;51.038;7.008;2023-04-29T08:25:43;75652.25;;;-142.53;78.84
4133;BME280;2080;51.038;7.008;2023-04-29T08:28:11;75630.91;;;-142.53;78.43
4133;BME280;2080;51.038;7.008;2023-04-29T08:30:40;75605.66;;;-142.53;76.36
4133;BME280;2080;51.038;7.008;2023-04-29T08:33:05;75601.78;;;-142.53;72.92
4133;BME280;2080;51.038;7.008;2023-04-29T08:35:30;75592.06;;;-142.53;75.46
4133;BME280;2080;51.038;7.008;2023-04-29T08:38:01;75621.19;;;-142.53;74.27
4133;BME280;2080;51.038;7.008;2023-04-29T08:40:26;75644.50;;;-142.53;76.07
4133;BME280;2080;51.038;7.008;2023-04-29T08:42:53;75753.25;;;-142.53;77.01
4133;BME280;2080;51.038;7.008;2023-04-29T08:45:21;75694.97;;;-142.53;75.96
4133;BME280;2080;51.038;7.008;2023-04-29T08:47:51;75694.97;;;-142.53;74.88
4133;BME280;2080;51.038;7.008;2023-04-29T08:50:18;75728.00;;;-142.53;76.02
4133;BME280;2080;51.038;7.008;2023-04-29T08:52:43;75737.72;;;-142.53;78.08
4133;BME280;2080;51.038;7.008;2023-04-29T08:55:08;75710.53;;;-142.53;75.13
4133;BME280;2080;51.038;7.008;2023-04-29T08:57:37;75749.34;;;-142.53;77.88
4133;BME280;2080;51.038;7.008;2023-04-29T09:00:09;75762.94;;;-142.53;77.03
4133;BME280;2080;51.038;7.008;2023-04-29T09:02:44;75731.88;;;-142.53;78.13
4133;BME280;2080;51.038;7.008;2023-04-29T09:05:10;75733.81;;;-142.53;77.53
4133;BME280;2080;51.038;7.008;2023-04-29T09:07:37;75716.34;;;-142.53;77.14
4133;BME280;2080;51.038;7.008;2023-04-29T09:10:04;75834.81;;;-142.53;78.53
4133;BME280;2080;51.038;7.008;2023-04-29T09:12:30;75792.09;;;-142.53;77.78
4133;BME280;2080;51.038;7.008;2023-04-29T09:14:59;75797.91;;;-142.53;77.11
4133;BME280;2080;51.038;7.008;2023-04-29T09:17:44;75827.03;;;-142.53;78.35
4133;BME280;2080;51.038;7.008;2023-04-29T09:22:47;75809.56;;;-142.53;79.28
4133;BME280;2080;51.038;7.008;2023-04-29T09:25:16;75827.03;;;-142.53;80.34
4133;BME280;2080;51.038;7.008;2023-04-29T09:27:44;75782.38;;;-142.53;80.56
4133;BME280;2080;51.038;7.008;2023-04-29T09:30:10;75792.09;;;-142.53;78.96
4133;BME280;2080;51.038;7.008;2023-04-29T09:32:37;75815.38;;;-142.53;77.49
4133;BME280;2080;51.038;7.008;2023-04-29T09:35:21;75817.31;;;-142.53;79.22
4133;BME280;2080;51.038;7.008;2023-04-29T09:37:52;75795.97;;;-142.53;79.82
4133;BME280;2080;51.038;7.008;2023-04-29T09:40:31;75862.00;;;-142.53;79.79
4133;BME280;2080;51.038;7.008;2023-04-29T09:42:59;75844.50;;;-142.53;79.69
4133;BME280;2080;51.038;7.008;2023-04-29T09:45:51;75795.97;;;-142.53;81.71
4133;BME280;2080;51.038;7.008;2023-04-29T09:48:16;75838.69;;;-142.53;81.38
4133;BME280;2080;51.038;7.008;2023-04-29T09:50:42;75815.38;;;-142.53;81.05
4133;BME280;2080;51.038;7.008;2023-04-29T09:53:26;75815.38;;;-142.53;80.90
4133;BME280;2080;51.038;7.008;2023-04-29T09:58:31;75846.47;;;-142.53;81.57
4133;BME280;2080;51.038;7.008;2023-04-29T10:01:02;75875.59;;;-142.53;81.56
4133;BME280;2080;51.038;7.008;2023-04-29T10:03:32;75904.72;;;-142.53;81.85
4133;BME280;2080;51.038;7.008;2023-04-29T10:06:03;75957.16;;;-142.53;86.03
4133;BME280;2080;51.038;7.008;2023-04-29T10:08:30;75885.28;;;-142.53;84.84
4133;BME280;2080;51.038;7.008;2023-04-29T10:11:02;75920.25;;;-142.53;84.88
4133;BME280;2080;51.038;7.008;2023-04-29T10:13:28;75924.13;;;-142.53;84.96
4133;BME280;2080;51.038;7.008;2023-04-29T10:16:06;75914.44;;;-142.53;84.63
4133;BME280;2080;51.038;7.008;2023-04-29T10:18:36;75914.44;;;-142.53;85.42
4133;BME280;2080;51.038;7.008;2023-04-29T10:21:06;75889.19;;;-142.53;84.31
4133;BME280;2080;51.038;7.008;2023-04-29T10:23:32;75931.91;;;-142.53;85.06
4133;BME280;2080;51.038;7.008;2023-04-29T10:26:01;75850.34;;;-142.53;82.77
4133;BME280;2080;51.038;7.008;2023-04-29T10:28:30;75856.16;;;-142.53;83.35
4133;BME280;2080;51.038;7.008;2023-04-29T10:30:56;75862.00;;;-142.53;82.59
4133;BME280;2080;51.038;7.008;2023-04-29T10:33:31;75906.66;;;-142.53;85.04
4133;BME280;2080;51.038;7.008;2023-04-29T10:36:00;75955.22;;;-142.53;85.20
4133;BME280;2080;51.038;7.008;2023-04-29T10:38:35;75885.28;;;-142.53;83.98
4133;BME280;2080;51.038;7.008;2023-04-29T10:41:09;75844.50;;;-142.53;81.60
4133;BME280;2080;51.038;7.008;2023-04-29T10:43:37;75840.63;;;-142.53;81.10
4133;BME280;2080;51.038;7.008;2023-04-29T10:48:49;75943.56;;;-142.53;84.52
4133;BME280;2080;51.038;7.008;2023-04-29T10:51:31;75931.91;;;-142.53;84.11
4133;BME280;2080;51.038;7.008;2023-04-29T10:59:10;75885.28;;;-142.53;82.72
4133;BME280;2080;51.038;7.008;2023-04-29T11:01:47;75898.91;;;-142.53;82.40
4133;BME280;2080;51.038;7.008;2023-04-29T11:04:14;75893.06;;;-142.53;83.03
4133;BME280;2080;51.038;7.008;2023-04-29T11:06:43;75879.47;;;-142.53;83.01
4133;BME280;2080;51.038;7.008;2023-04-29T11:14:26;75862.00;;;-142.53;81.04
4133;BME280;2080;51.038;7.008;2023-04-29T11:16:55;75846.47;;;-142.53;81.05
4133;BME280;2080;51.038;7.008;2023-04-29T11:19:27;75827.03;;;-142.53;80.92
4133;BME280;2080;51.038;7.008;2023-04-29T11:22:27;75928.03;;;-142.53;84.51
4133;BME280;2080;51.038;7.008;2023-04-29T11:27:30;75823.16;;;-142.53;80.83
4133;BME280;2080;51.038;7.008;2023-04-29T11:29:57;75807.63;;;-142.53;80.36
4133;BME280;2080;51.038;7.008;2023-04-29T11:32:27;75731.88;;;-142.53;79.25
4133;BME280;2080;51.038;7.008;2023-04-29T11:34:53;75718.28;;;-142.53;77.97
4133;BME280;2080;51.038;7.008;2023-04-29T11:37:23;75667.78;;;-142.53;77.23
4133;BME280;2080;51.038;7.008;2023-04-29T11:39:49;75702.75;;;-142.53;75.13
4133;BME280;2080;51.038;7.008;2023-04-29T11:42:19;75679.44;;;-142.53;73.67
4133;BME280;2080;51.038;7.008;2023-04-29T11:44:50;75679.44;;;-142.53;73.56
4133;BME280;2080;51.038;7.008;2023-04-29T11:47:19;75768.78;;;-142.53;75.64
4133;BME280;2080;51.038;7.008;2023-04-29T11:49:46;75797.91;;;-142.53;75.69
4133;BME280;2080;51.038;7.008;2023-04-29T11:52:11;75834.81;;;-142.53;77.04
4133;BME280;2080;51.038;7.008;2023-04-29T11:54:37;75805.69;;;-142.53;76.39
4133;BME280;2080;51.038;7.008;2023-04-29T11:57:05;75842.56;;;-142.53;76.88
4133;BME280;2080;51.038;7.008;2023-04-29T11:59:35;75782.38;;;-142.53;77.53
4133;BME280;2080;51.038;7.008;2023-04-29T12:02:00;75735.75;;;-142.53;74.30
4133;BME280;2080;51.038;7.008;2023-04-29T12:04:26;75757.13;;;-142.53;76.84
4133;BME280;2080;51.038;7.008;2023-04-29T12:06:52;75788.19;;;-142.53;77.53
4133;BME280;2080;51.038;7.008;2023-04-29T12:09:19;75757.13;;;-142.53;75.82
4133;BME280;2080;51.038;7.008;2023-04-29T12:11:50;75842.56;;;-142.53;78.27
4133;BME280;2080;51.038;7.008;2023-04-29T12:14:17;75823.16;;;-142.53;78.74
4133;BME280;2080;51.038;7.008;2023-04-29T12:16:46;75807.63;;;-142.53;78.19
4133;BME280;2080;51.038;7.008;2023-04-29T12:19:14;75807.63;;;-142.53;77.13
4133;BME280;2080;51.038;7.008;2023-04-29T12:21:47;75749.34;;;-142.53;75.62
4133;BME280;2080;51.038;7.008;2023-04-29T12:24:13;75745.47;;;-142.53;74.01
4133;BME280;2080;51.038;7.008;2023-04-29T12:26:39;75679.44;;;-142.53;73.38
4133;BME280;2080;51.038;7.008;2023-04-29T12:29:08;75572.66;;;-142.53;70.90
4133;BME280;2080;51.038;7.008;2023-04-29T12:31:34;75469.72;;;-142.53;71.59
4133;BME280;2080;51.038;7.008;2023-04-29T12:34:02;75407.59;;;-142.53;65.97
4133;BME280;2080;51.038;7.008;2023-04-29T12:36:27;75318.28;;;-142.53;61.87
4133;BME280;2080;51.038;7.008;2023-04-29T12:38:53;75250.31;;;-142.53;61.89
4133;BME280;2080;51.038;7.008;2023-04-29T12:41:43;75277.50;;;-142.53;58.24
4133;BME280;2080;51.038;7.008;2023-04-29T12:44:09;75349.34;;;-142.53;58.08
4133;BME280;2080;51.038;7.008;2023-04-29T12:46:39;75211.47;;;-142.53;55.87
4133;BME280;2080;51.038;7.008;2023-04-29T12:49:08;75293.03;;;-142.53;55.54
4133;BME280;2080;51.038;7.008;2023-04-29T12:51:34;75425.06;;;-142.53;56.96
4133;BME280;2080;51.038;7.008;2023-04-29T12:54:05;75269.72;;;-142.53;56.76
4133;BME280;2080;51.038;7.008;2023-04-29T12:56:31;75139.63;;;-142.53;54.60
4133;BME280;2080;51.038;7.008;2023-04-29T12:59:04;75069.75;;;-142.53;50.89
4133;BME280;2080;51.038;7.008;2023-04-29T13:01:34;75194.00;;;-142.53;51.86
4133;BME280;2080;51.038;7.008;2023-04-29T13:04:02;75170.69;;;-142.53;48.70
4133;BME280;2080;51.038;7.008;2023-04-29T13:06:30;75143.53;;;-142.53;50.88
4133;BME280;2080;51.038;7.008;2023-04-29T13:08:58;75161.00;;;-142.53;49.07
4133;BME280;2080;51.038;7.008;2023-04-29T13:11:24;75178.47;;;-142.53;49.83
4133;BME280;2080;51.038;7.008;2023-04-29T13:13:49;75159.06;;;-142.53;51.14
4133;BME280;2080;51.038;7.008;2023-04-29T13:16:15;75104.69;;;-142.53;50.59
4133;BME280;2080;51.038;7.008;2023-04-29T13:18:43;75081.38;;;-142.53;50.19
4133;BME280;2080;51.038;7.008;2023-04-29T13:21:13;75131.88;;;-142.53;48.43
4133;BME280;2080;51.038;7.008;2023-04-29T13:23:41;75081.38;;;-142.53;49.12
4133;BME280;2080;51.038;7.008;2023-04-29T13:26:06;75096.91;;;-142.53;47.22